createdAt,value
2022-09-29T00:00:51.595Z,0.60
2022-09-29T00:05:56.992Z,0.60
2022-09-29T00:11:00.497Z,0.70
2022-09-29T00:16:06.041Z,0.70
2022-09-29T00:21:11.734Z,0.63
2022-09-29T00:26:17.522Z,0.60
2022-09-29T00:31:22.738Z,0.60
2022-09-29T00:36:29.966Z,0.70
2022-09-29T00:41:36.073Z,0.60
2022-09-29T00:46:45.754Z,0.57
2022-09-29T00:51:55.776Z,0.60
2022-09-29T00:57:03.089Z,0.50
2022-09-29T01:02:09.032Z,0.53
2022-09-29T01:07:13.849Z,0.50
2022-09-29T01:12:17.442Z,0.70
2022-09-29T01:17:22.830Z,0.40
2022-09-29T01:22:52.416Z,0.57
2022-09-29T01:28:14.860Z,0.47
2022-09-29T01:33:27.992Z,0.50
2022-09-29T01:38:54.709Z,0.60
2022-09-29T01:44:04.873Z,0.50
2022-09-29T01:49:11.251Z,0.60
2022-09-29T01:54:18.833Z,0.60
2022-09-29T01:59:27.604Z,0.40
2022-09-29T02:04:35.121Z,0.40
2022-09-29T02:09:43.512Z,0.67
2022-09-29T02:14:49.206Z,0.40
2022-09-29T02:19:55.193Z,0.40
2022-09-29T02:25:00.736Z,0.73
2022-09-29T02:30:06.327Z,0.53
2022-09-29T02:35:14.266Z,0.50
2022-09-29T02:40:36.416Z,0.40
2022-09-29T02:45:50.912Z,0.50
2022-09-29T02:51:05.586Z,0.40
2022-09-29T02:56:15.111Z,0.40
2022-09-29T03:01:18.896Z,0.43
2022-09-29T03:06:24.213Z,0.70
2022-09-29T03:11:27.711Z,0.60
2022-09-29T03:16:31.326Z,0.50
2022-09-29T03:21:36.977Z,0.50
2022-09-29T03:26:40.488Z,0.60
2022-09-29T03:31:44.030Z,0.30
2022-09-29T03:36:48.939Z,0.40
2022-09-29T03:41:53.227Z,0.50
2022-09-29T03:46:56.814Z,0.40
2022-09-29T03:52:02.143Z,0.47
2022-09-29T03:57:06.054Z,0.30
2022-09-29T04:02:09.687Z,0.37
2022-09-29T04:07:14.649Z,0.50
2022-09-29T04:12:18.141Z,0.50
2022-09-29T04:17:21.805Z,0.30
2022-09-29T04:22:26.711Z,0.40
2022-09-29T04:27:30.461Z,0.40
2022-09-29T04:32:34.486Z,0.40
2022-09-29T04:37:39.393Z,0.47
2022-09-29T04:42:42.946Z,0.40
2022-09-29T04:47:46.444Z,0.57
2022-09-29T04:52:51.400Z,0.43
2022-09-29T04:57:54.911Z,0.43
2022-09-29T05:02:58.441Z,0.40
2022-09-29T05:08:04.570Z,0.50
2022-09-29T05:13:08.119Z,0.40
2022-09-29T05:18:12.823Z,0.67
2022-09-29T05:23:17.656Z,0.70
2022-09-29T05:28:21.222Z,0.50
2022-09-29T05:33:24.749Z,0.40
2022-09-29T05:38:29.932Z,0.30
2022-09-29T05:43:33.531Z,0.57
2022-09-29T05:48:37.325Z,0.40
2022-09-29T05:53:43.087Z,0.50
2022-09-29T05:58:47.215Z,0.70
2022-09-29T06:03:52.040Z,0.43
2022-09-29T06:08:58.533Z,0.77
2022-09-29T06:14:03.582Z,0.50
2022-09-29T06:19:07.089Z,0.70
2022-09-29T06:24:12.550Z,0.60
2022-09-29T06:29:16.092Z,0.70
2022-09-29T06:34:19.630Z,0.70
2022-09-29T06:39:25.058Z,0.50
2022-09-29T06:44:30.597Z,0.50
2022-09-29T06:49:34.081Z,0.70
2022-09-29T06:54:38.950Z,0.50
2022-09-29T06:59:42.496Z,0.70
2022-09-29T07:04:47.877Z,0.60
2022-09-29T07:09:52.764Z,0.70
2022-09-29T07:14:56.242Z,0.70
2022-09-29T07:19:59.840Z,0.53
2022-09-29T07:25:05.155Z,0.87
2022-09-29T07:30:10.250Z,0.90
2022-09-29T07:35:13.723Z,0.90
2022-09-29T07:40:18.805Z,0.70
2022-09-29T07:45:22.379Z,0.70
2022-09-29T07:50:25.910Z,0.60
2022-09-29T07:55:30.763Z,0.50
2022-09-29T08:00:34.387Z,0.73
2022-09-29T08:05:38.133Z,0.60
2022-09-29T08:10:52.387Z,0.60
2022-09-29T08:15:59.710Z,0.70
2022-09-29T08:21:04.718Z,0.60
2022-09-29T08:26:11.610Z,0.60
2022-09-29T08:31:17.959Z,0.60
2022-09-29T08:36:21.859Z,0.83
2022-09-29T08:41:39.867Z,0.80
2022-09-29T08:46:46.920Z,0.90
2022-09-29T08:51:54.255Z,0.73
2022-09-29T08:56:59.789Z,0.73
2022-09-29T09:02:37.634Z,0.80
2022-09-29T09:07:50.600Z,0.50
2022-09-29T09:13:25.657Z,1.10
2022-09-29T09:24:18.424Z,0.77
2022-09-29T09:29:36.540Z,0.70
2022-09-29T09:34:46.832Z,0.70
2022-09-29T09:39:58.188Z,0.70
2022-09-29T09:45:08.058Z,0.80
2022-09-29T09:50:15.940Z,0.80
2022-09-29T09:55:21.674Z,0.80
2022-09-29T10:00:30.070Z,0.63
2022-09-29T10:05:38.933Z,0.60
2022-09-29T10:10:57.555Z,0.83
2022-09-29T10:16:11.919Z,1.00
2022-09-29T10:21:38.155Z,0.90
2022-09-29T10:26:44.752Z,0.60
2022-09-29T10:32:02.937Z,0.73
2022-09-29T10:37:20.387Z,0.57
2022-09-29T10:42:25.317Z,0.60
2022-09-29T10:47:30.283Z,0.60
2022-09-29T10:52:33.912Z,0.70
2022-09-29T10:57:40.000Z,0.60
2022-09-29T11:02:45.065Z,0.40
2022-09-29T11:07:51.258Z,0.50
2022-09-29T11:12:56.085Z,0.50
2022-09-29T11:18:01.094Z,0.40
2022-09-29T11:23:22.787Z,0.50
2022-09-29T11:28:53.465Z,0.40
2022-09-29T11:34:15.243Z,0.30
2022-09-29T11:39:30.493Z,0.50
2022-09-29T11:44:47.790Z,0.40
2022-09-29T11:50:08.315Z,0.40
2022-09-29T11:55:28.430Z,0.20
2022-09-29T12:00:48.156Z,0.30
2022-09-29T12:06:05.239Z,0.30
2022-09-29T12:11:42.027Z,0.40
2022-09-29T12:16:45.782Z,0.40
2022-09-29T12:21:53.303Z,0.30
2022-09-29T12:26:58.289Z,0.23
2022-09-29T12:32:08.146Z,0.30
2022-09-29T12:37:20.297Z,0.50
2022-09-29T12:42:44.446Z,0.33
2022-09-29T12:48:08.929Z,0.57
2022-09-29T12:53:21.522Z,0.40
2022-09-29T12:58:33.907Z,0.40
2022-09-29T13:04:04.957Z,0.40
2022-09-29T13:09:45.017Z,0.30
2022-09-29T13:15:09.292Z,0.33
2022-09-29T13:20:31.884Z,0.30
2022-09-29T13:25:46.171Z,0.30
2022-09-29T13:30:50.118Z,0.27
2022-09-29T13:35:54.697Z,0.30
2022-09-29T13:41:16.523Z,0.10
2022-09-29T13:46:38.312Z,0.17
2022-09-29T13:51:49.054Z,0.20
2022-09-29T13:57:06.972Z,0.20
2022-09-29T14:02:26.977Z,0.20
2022-09-29T14:07:42.607Z,0.20
2022-09-29T14:12:53.693Z,0.20
2022-09-29T14:18:03.114Z,0.20
2022-09-29T14:23:08.326Z,0.17
2022-09-29T14:28:18.396Z,0.20
2022-09-29T14:33:25.306Z,0.10
2022-09-29T14:38:32.687Z,0.20
2022-09-29T14:43:41.692Z,0.20
2022-09-29T14:49:24.158Z,0.17
2022-09-29T14:54:43.233Z,0.20
2022-09-29T15:00:02.957Z,0.20
2022-09-29T15:05:28.634Z,0.20
2022-09-29T15:10:41.625Z,0.10
2022-09-29T15:15:49.402Z,0.27
2022-09-29T15:21:01.192Z,0.20
2022-09-29T15:26:05.519Z,0.20
2022-09-29T15:31:13.903Z,0.10
2022-09-29T15:36:21.467Z,0.20
2022-09-29T15:41:29.095Z,0.20
2022-09-29T15:46:41.428Z,0.20
2022-09-29T15:51:55.551Z,0.30
2022-09-29T15:57:16.528Z,0.30
2022-09-29T16:02:27.589Z,0.10
2022-09-29T16:07:34.514Z,0.20
2022-09-29T16:12:46.154Z,0.23
2022-09-29T16:17:51.543Z,0.20
2022-09-29T16:22:55.791Z,0.20
2022-09-29T16:28:00.496Z,0.27
2022-09-29T16:33:15.704Z,0.40
2022-09-29T16:38:24.936Z,0.20
2022-09-29T16:43:31.022Z,0.30
2022-09-29T16:48:40.716Z,0.30
2022-09-29T16:53:45.536Z,3.50
2022-09-29T16:59:04.293Z,3.10
2022-09-29T17:04:09.909Z,1.30
2022-09-29T17:09:20.392Z,0.73
2022-09-29T17:14:25.624Z,0.50
2022-09-29T17:19:30.496Z,0.40
2022-09-29T17:24:34.006Z,0.33
2022-09-29T17:29:37.548Z,0.40
2022-09-29T17:34:42.422Z,0.50
2022-09-29T17:39:45.882Z,0.63
2022-09-29T17:44:49.382Z,0.70
2022-09-29T17:49:54.349Z,0.50
2022-09-29T17:54:57.882Z,0.30
2022-09-29T18:00:01.697Z,0.40
2022-09-29T18:05:14.723Z,0.40
2022-09-29T18:10:27.998Z,0.30
2022-09-29T18:15:32.172Z,0.30
2022-09-29T18:20:38.415Z,0.40
2022-09-29T18:25:47.266Z,0.60
2022-09-29T18:30:55.945Z,1.20
2022-09-29T18:36:01.900Z,1.10
2022-09-29T18:41:08.133Z,1.10
2022-09-29T18:46:14.045Z,1.30
2022-09-29T18:51:21.294Z,1.00
2022-09-29T18:56:25.476Z,1.17
2022-09-29T19:01:29.869Z,1.10
2022-09-29T19:06:35.012Z,0.90
2022-09-29T19:11:38.570Z,1.07
2022-09-29T19:16:42.110Z,1.13
2022-09-29T19:21:46.978Z,0.73
2022-09-29T19:26:50.608Z,0.83
2022-09-29T19:31:54.096Z,0.70
2022-09-29T19:36:59.012Z,0.73
2022-09-29T19:42:02.865Z,0.70
2022-09-29T19:47:07.813Z,0.90
2022-09-29T19:52:12.711Z,0.80
2022-09-29T19:57:16.625Z,0.87
2022-09-29T20:02:20.232Z,0.80
2022-09-29T20:13:43.679Z,1.10
2022-09-29T20:18:49.032Z,0.70
2022-09-29T20:23:54.245Z,0.90
2022-09-29T20:28:58.830Z,0.73
2022-09-29T20:34:02.341Z,0.80
2022-09-29T20:39:07.305Z,0.80
2022-09-29T20:44:11.547Z,0.73
2022-09-29T20:49:15.147Z,0.93
2022-09-29T20:54:20.772Z,0.73
2022-09-29T20:59:24.884Z,0.83
2022-09-29T21:04:28.646Z,0.70
2022-09-29T21:09:33.553Z,0.80
2022-09-29T21:14:38.991Z,0.70
2022-09-29T21:19:42.474Z,0.83
2022-09-29T21:24:47.342Z,0.60
2022-09-29T21:29:51.327Z,0.73
2022-09-29T21:34:55.134Z,0.90
2022-09-29T21:40:00.173Z,1.27
2022-09-29T21:45:03.724Z,1.77
2022-09-29T21:50:08.587Z,1.70
2022-09-29T21:55:13.617Z,1.07
2022-09-29T22:00:17.459Z,1.00
2022-09-29T22:05:20.949Z,0.80
2022-09-29T22:10:27.598Z,0.80
2022-09-29T22:15:33.771Z,1.00
2022-09-29T22:20:37.596Z,0.83
2022-09-29T22:25:46.090Z,0.80
2022-09-29T22:30:49.722Z,0.93
2022-09-29T22:35:57.130Z,0.83
2022-09-29T22:41:02.098Z,0.60
2022-09-29T22:46:06.663Z,1.00
2022-09-29T22:51:10.234Z,0.70
2022-09-29T22:56:17.921Z,0.80
2022-09-29T23:01:22.067Z,0.60
2022-09-29T23:06:25.714Z,0.60
2022-09-29T23:11:31.202Z,0.87
2022-09-29T23:16:34.816Z,0.80
2022-09-29T23:21:38.420Z,0.67
2022-09-29T23:26:46.120Z,0.70
2022-09-29T23:31:50.671Z,0.70
2022-09-29T23:36:54.303Z,0.83
2022-09-29T23:41:59.139Z,0.80
2022-09-29T23:47:02.639Z,0.70
2022-09-29T23:52:06.115Z,0.60
2022-09-29T23:57:11.008Z,0.80
